sensor_id;sensor_type;location;lat;lon;timestamp;P1;durP1;ratioP1;P2;durP2;ratioP2
49784;SDS011;35679;38.732;-121.358;2023-04-24T00:00:57;2.50;;;2.30;;
49784;SDS011;35679;38.732;-121.358;2023-04-24T00:03:49;2.30;;;2.10;;
49784;SDS011;35679;38.732;-121.358;2023-04-24T00:06:39;2.15;;;2.05;;
49784;SDS011;35679;38.732;-121.358;2023-04-24T00:09:31;1.97;;;1.87;;
49784;SDS011;35679;38.732;-121.358;2023-04-24T00:12:20;2.63;;;2.40;;
49784;SDS011;35679;38.732;-121.358;2023-04-24T00:15:10;2.10;;;2.00;;
49784;SDS011;35679;38.732;-121.358;2023-04-24T00:18:00;2.47;;;2.38;;
49784;SDS011;35679;38.732;-121.358;2023-04-24T00:20:52;2.15;;;2.05;;
49784;SDS011;35679;38.732;-121.358;2023-04-24T00:23:41;2.67;;;2.08;;
49784;SDS011;35679;38.732;-121.358;2023-04-24T00:26:30;2.55;;;2.03;;
49784;SDS011;35679;38.732;-121.358;2023-04-24T00:29:20;2.42;;;2.28;;
49784;SDS011;35679;38.732;-121.358;2023-04-24T00:32:09;2.38;;;2.20;;
49784;SDS011;35679;38.732;-121.358;2023-04-24T00:34:59;2.35;;;2.25;;
49784;SDS011;35679;38.732;-121.358;2023-04-24T00:37:48;2.28;;;2.08;;
49784;SDS011;35679;38.732;-121.358;2023-04-24T00:40:39;2.65;;;2.00;;
49784;SDS011;35679;38.732;-121.358;2023-04-24T00:43:28;2.15;;;2.05;;
49784;SDS011;35679;38.732;-121.358;2023-04-24T00:46:18;2.38;;;2.17;;
49784;SDS011;35679;38.732;-121.358;2023-04-24T00:49:08;2.30;;;2.20;;
49784;SDS011;35679;38.732;-121.358;2023-04-24T00:51:58;2.20;;;2.10;;
49784;SDS011;35679;38.732;-121.358;2023-04-24T00:54:48;2.30;;;2.20;;
49784;SDS011;35679;38.732;-121.358;2023-04-24T00:57:37;2.20;;;2.00;;
49784;SDS011;35679;38.732;-121.358;2023-04-24T01:00:27;2.30;;;2.10;;
49784;SDS011;35679;38.732;-121.358;2023-04-24T01:03:17;2.10;;;1.90;;
49784;SDS011;35679;38.732;-121.358;2023-04-24T01:06:07;2.25;;;2.05;;
49784;SDS011;35679;38.732;-121.358;2023-04-24T01:08:58;2.22;;;2.00;;
49784;SDS011;35679;38.732;-121.358;2023-04-24T01:11:49;1.90;;;1.80;;
49784;SDS011;35679;38.732;-121.358;2023-04-24T01:14:39;2.00;;;1.90;;
49784;SDS011;35679;38.732;-121.358;2023-04-24T01:17:29;2.15;;;2.05;;
49784;SDS011;35679;38.732;-121.358;2023-04-24T01:20:18;3.45;;;2.00;;
49784;SDS011;35679;38.732;-121.358;2023-04-24T01:23:09;2.20;;;1.90;;
49784;SDS011;35679;38.732;-121.358;2023-04-24T01:25:58;1.85;;;1.80;;
49784;SDS011;35679;38.732;-121.358;2023-04-24T01:28:48;2.25;;;2.08;;
49784;SDS011;35679;38.732;-121.358;2023-04-24T01:31:38;1.90;;;1.80;;
49784;SDS011;35679;38.732;-121.358;2023-04-24T01:34:28;2.05;;;1.95;;
49784;SDS011;35679;38.732;-121.358;2023-04-24T01:37:18;2.00;;;1.90;;
49784;SDS011;35679;38.732;-121.358;2023-04-24T01:40:08;2.28;;;2.10;;
49784;SDS011;35679;38.732;-121.358;2023-04-24T01:42:58;2.25;;;2.15;;
49784;SDS011;35679;38.732;-121.358;2023-04-24T01:45:49;2.00;;;1.90;;
49784;SDS011;35679;38.732;-121.358;2023-04-24T01:48:39;2.33;;;1.90;;
49784;SDS011;35679;38.732;-121.358;2023-04-24T01:51:28;2.40;;;2.20;;
49784;SDS011;35679;38.732;-121.358;2023-04-24T01:54:18;2.10;;;2.00;;
49784;SDS011;35679;38.732;-121.358;2023-04-24T01:57:08;2.10;;;2.00;;
49784;SDS011;35679;38.732;-121.358;2023-04-24T01:59:57;2.10;;;2.00;;
49784;SDS011;35679;38.732;-121.358;2023-04-24T02:02:48;2.20;;;2.10;;
49784;SDS011;35679;38.732;-121.358;2023-04-24T02:05:38;2.33;;;2.10;;
49784;SDS011;35679;38.732;-121.358;2023-04-24T02:08:27;2.22;;;2.13;;
49784;SDS011;35679;38.732;-121.358;2023-04-24T02:11:17;2.28;;;2.08;;
49784;SDS011;35679;38.732;-121.358;2023-04-24T02:14:07;2.08;;;1.98;;
49784;SDS011;35679;38.732;-121.358;2023-04-24T02:16:59;2.22;;;2.13;;
49784;SDS011;35679;38.732;-121.358;2023-04-24T02:19:49;2.20;;;2.10;;
49784;SDS011;35679;38.732;-121.358;2023-04-24T02:22:38;2.20;;;2.10;;
49784;SDS011;35679;38.732;-121.358;2023-04-24T02:25:27;2.50;;;2.30;;
49784;SDS011;35679;38.732;-121.358;2023-04-24T02:28:17;2.03;;;1.92;;
49784;SDS011;35679;38.732;-121.358;2023-04-24T02:31:06;2.13;;;2.03;;
49784;SDS011;35679;38.732;-121.358;2023-04-24T02:33:55;2.10;;;2.00;;
49784;SDS011;35679;38.732;-121.358;2023-04-24T02:36:45;2.00;;;1.90;;
49784;SDS011;35679;38.732;-121.358;2023-04-24T02:39:35;2.28;;;2.17;;
49784;SDS011;35679;38.732;-121.358;2023-04-24T02:42:24;2.10;;;2.00;;
49784;SDS011;35679;38.732;-121.358;2023-04-24T02:45:14;2.50;;;2.40;;
49784;SDS011;35679;38.732;-121.358;2023-04-24T02:48:03;2.40;;;2.30;;
49784;SDS011;35679;38.732;-121.358;2023-04-24T02:50:52;2.40;;;2.20;;
49784;SDS011;35679;38.732;-121.358;2023-04-24T02:53:41;2.47;;;2.30;;
49784;SDS011;35679;38.732;-121.358;2023-04-24T02:56:31;2.40;;;2.30;;
49784;SDS011;35679;38.732;-121.358;2023-04-24T02:59:20;2.42;;;2.22;;
49784;SDS011;35679;38.732;-121.358;2023-04-24T03:02:10;2.22;;;2.13;;
49784;SDS011;35679;38.732;-121.358;2023-04-24T03:04:59;2.25;;;2.15;;
49784;SDS011;35679;38.732;-121.358;2023-04-24T03:07:49;2.40;;;2.30;;
49784;SDS011;35679;38.732;-121.358;2023-04-24T03:10:40;2.30;;;2.20;;
49784;SDS011;35679;38.732;-121.358;2023-04-24T03:13:34;2.30;;;2.20;;
49784;SDS011;35679;38.732;-121.358;2023-04-24T03:16:24;2.40;;;2.30;;
49784;SDS011;35679;38.732;-121.358;2023-04-24T03:19:14;2.10;;;2.10;;
49784;SDS011;35679;38.732;-121.358;2023-04-24T03:22:17;2.40;;;2.30;;
49784;SDS011;35679;38.732;-121.358;2023-04-24T03:25:07;2.38;;;2.28;;
49784;SDS011;35679;38.732;-121.358;2023-04-24T03:27:57;2.47;;;2.38;;
49784;SDS011;35679;38.732;-121.358;2023-04-24T03:30:54;2.35;;;2.25;;
49784;SDS011;35679;38.732;-121.358;2023-04-24T03:33:45;2.40;;;2.20;;
49784;SDS011;35679;38.732;-121.358;2023-04-24T03:36:35;2.15;;;2.03;;
49784;SDS011;35679;38.732;-121.358;2023-04-24T03:39:26;2.73;;;2.07;;
49784;SDS011;35679;38.732;-121.358;2023-04-24T03:42:16;2.45;;;2.28;;
49784;SDS011;35679;38.732;-121.358;2023-04-24T03:45:14;2.20;;;2.10;;
49784;SDS011;35679;38.732;-121.358;2023-04-24T03:48:07;2.20;;;2.10;;
49784;SDS011;35679;38.732;-121.358;2023-04-24T03:50:57;2.05;;;1.95;;
49784;SDS011;35679;38.732;-121.358;2023-04-24T03:53:48;2.13;;;2.05;;
49784;SDS011;35679;38.732;-121.358;2023-04-24T03:56:40;2.10;;;2.00;;
49784;SDS011;35679;38.732;-121.358;2023-04-24T03:59:30;2.08;;;1.98;;
49784;SDS011;35679;38.732;-121.358;2023-04-24T04:02:35;2.20;;;2.10;;
49784;SDS011;35679;38.732;-121.358;2023-04-24T04:05:25;2.25;;;2.15;;
49784;SDS011;35679;38.732;-121.358;2023-04-24T04:08:14;2.30;;;2.20;;
49784;SDS011;35679;38.732;-121.358;2023-04-24T04:11:04;2.22;;;2.05;;
49784;SDS011;35679;38.732;-121.358;2023-04-24T04:13:53;2.22;;;2.13;;
49784;SDS011;35679;38.732;-121.358;2023-04-24T04:16:43;1.98;;;1.98;;
49784;SDS011;35679;38.732;-121.358;2023-04-24T04:19:33;2.20;;;2.00;;
49784;SDS011;35679;38.732;-121.358;2023-04-24T04:22:23;2.20;;;2.10;;
49784;SDS011;35679;38.732;-121.358;2023-04-24T04:25:12;2.20;;;2.10;;
49784;SDS011;35679;38.732;-121.358;2023-04-24T04:28:03;2.20;;;2.10;;
49784;SDS011;35679;38.732;-121.358;2023-04-24T04:30:53;2.28;;;1.98;;
49784;SDS011;35679;38.732;-121.358;2023-04-24T04:33:43;2.10;;;2.00;;
49784;SDS011;35679;38.732;-121.358;2023-04-24T04:36:32;2.30;;;2.20;;
49784;SDS011;35679;38.732;-121.358;2023-04-24T04:39:39;2.40;;;2.20;;
49784;SDS011;35679;38.732;-121.358;2023-04-24T04:42:35;2.30;;;2.20;;
49784;SDS011;35679;38.732;-121.358;2023-04-24T04:45:28;2.20;;;2.10;;
49784;SDS011;35679;38.732;-121.358;2023-04-24T04:48:57;2.20;;;2.10;;
49784;SDS011;35679;38.732;-121.358;2023-04-24T04:51:48;2.42;;;2.10;;
49784;SDS011;35679;38.732;-121.358;2023-04-24T04:54:41;2.30;;;2.20;;
49784;SDS011;35679;38.732;-121.358;2023-04-24T04:57:31;2.10;;;2.00;;
49784;SDS011;35679;38.732;-121.358;2023-04-24T05:00:20;2.22;;;2.13;;
49784;SDS011;35679;38.732;-121.358;2023-04-24T05:03:14;2.30;;;2.20;;
49784;SDS011;35679;38.732;-121.358;2023-04-24T05:06:15;2.20;;;2.10;;
49784;SDS011;35679;38.732;-121.358;2023-04-24T05:09:06;2.60;;;2.50;;
49784;SDS011;35679;38.732;-121.358;2023-04-24T05:12:05;2.17;;;2.08;;
49784;SDS011;35679;38.732;-121.358;2023-04-24T05:15:03;2.70;;;2.28;;
49784;SDS011;35679;38.732;-121.358;2023-04-24T05:17:52;2.28;;;2.08;;
49784;SDS011;35679;38.732;-121.358;2023-04-24T05:20:46;2.63;;;2.42;;
49784;SDS011;35679;38.732;-121.358;2023-04-24T05:23:36;2.30;;;2.20;;
49784;SDS011;35679;38.732;-121.358;2023-04-24T05:26:25;2.40;;;2.30;;
49784;SDS011;35679;38.732;-121.358;2023-04-24T05:29:17;2.55;;;2.45;;
49784;SDS011;35679;38.732;-121.358;2023-04-24T05:32:07;2.50;;;2.30;;
49784;SDS011;35679;38.732;-121.358;2023-04-24T05:34:56;2.38;;;2.28;;
49784;SDS011;35679;38.732;-121.358;2023-04-24T05:37:46;2.67;;;2.15;;
49784;SDS011;35679;38.732;-121.358;2023-04-24T05:40:36;2.45;;;2.30;;
49784;SDS011;35679;38.732;-121.358;2023-04-24T05:43:25;2.70;;;2.50;;
49784;SDS011;35679;38.732;-121.358;2023-04-24T05:46:15;2.53;;;2.33;;
49784;SDS011;35679;38.732;-121.358;2023-04-24T05:49:04;2.60;;;2.40;;
49784;SDS011;35679;38.732;-121.358;2023-04-24T05:51:54;2.85;;;2.30;;
49784;SDS011;35679;38.732;-121.358;2023-04-24T05:54:44;3.50;;;2.35;;
49784;SDS011;35679;38.732;-121.358;2023-04-24T05:57:37;2.38;;;2.10;;
49784;SDS011;35679;38.732;-121.358;2023-04-24T06:00:27;2.65;;;2.17;;
49784;SDS011;35679;38.732;-121.358;2023-04-24T06:03:25;2.40;;;2.30;;
49784;SDS011;35679;38.732;-121.358;2023-04-24T06:06:15;2.58;;;2.38;;
49784;SDS011;35679;38.732;-121.358;2023-04-24T06:09:05;2.40;;;2.30;;
49784;SDS011;35679;38.732;-121.358;2023-04-24T06:11:55;2.30;;;2.10;;
49784;SDS011;35679;38.732;-121.358;2023-04-24T06:14:51;2.70;;;2.50;;
49784;SDS011;35679;38.732;-121.358;2023-04-24T06:17:59;2.40;;;2.30;;
49784;SDS011;35679;38.732;-121.358;2023-04-24T06:20:48;3.47;;;2.40;;
49784;SDS011;35679;38.732;-121.358;2023-04-24T06:23:38;2.42;;;2.20;;
49784;SDS011;35679;38.732;-121.358;2023-04-24T06:26:28;2.45;;;2.25;;
49784;SDS011;35679;38.732;-121.358;2023-04-24T06:29:17;2.40;;;2.22;;
49784;SDS011;35679;38.732;-121.358;2023-04-24T06:32:06;2.45;;;2.25;;
49784;SDS011;35679;38.732;-121.358;2023-04-24T06:34:56;2.40;;;2.20;;
49784;SDS011;35679;38.732;-121.358;2023-04-24T06:37:45;2.30;;;2.20;;
49784;SDS011;35679;38.732;-121.358;2023-04-24T06:40:35;2.50;;;2.30;;
49784;SDS011;35679;38.732;-121.358;2023-04-24T06:43:24;4.32;;;2.80;;
49784;SDS011;35679;38.732;-121.358;2023-04-24T06:46:14;2.53;;;2.13;;
49784;SDS011;35679;38.732;-121.358;2023-04-24T06:49:03;2.70;;;2.50;;
49784;SDS011;35679;38.732;-121.358;2023-04-24T06:51:52;2.40;;;2.20;;
49784;SDS011;35679;38.732;-121.358;2023-04-24T06:54:42;2.40;;;2.22;;
49784;SDS011;35679;38.732;-121.358;2023-04-24T06:57:31;2.40;;;2.20;;
49784;SDS011;35679;38.732;-121.358;2023-04-24T07:00:24;2.53;;;2.33;;
49784;SDS011;35679;38.732;-121.358;2023-04-24T07:03:13;2.65;;;2.45;;
49784;SDS011;35679;38.732;-121.358;2023-04-24T07:06:03;3.70;;;2.22;;
49784;SDS011;35679;38.732;-121.358;2023-04-24T07:08:53;2.40;;;2.30;;
49784;SDS011;35679;38.732;-121.358;2023-04-24T07:11:47;2.30;;;2.20;;
49784;SDS011;35679;38.732;-121.358;2023-04-24T07:14:37;2.53;;;2.33;;
49784;SDS011;35679;38.732;-121.358;2023-04-24T07:17:26;2.50;;;2.30;;
49784;SDS011;35679;38.732;-121.358;2023-04-24T07:20:16;3.42;;;2.40;;
49784;SDS011;35679;38.732;-121.358;2023-04-24T07:23:05;2.63;;;2.17;;
49784;SDS011;35679;38.732;-121.358;2023-04-24T07:25:54;2.80;;;2.50;;
49784;SDS011;35679;38.732;-121.358;2023-04-24T07:28:43;2.22;;;2.13;;
49784;SDS011;35679;38.732;-121.358;2023-04-24T07:31:33;2.70;;;2.20;;
49784;SDS011;35679;38.732;-121.358;2023-04-24T07:34:22;2.70;;;2.50;;
49784;SDS011;35679;38.732;-121.358;2023-04-24T07:37:11;2.53;;;2.30;;
49784;SDS011;35679;38.732;-121.358;2023-04-24T07:40:01;2.50;;;2.30;;
49784;SDS011;35679;38.732;-121.358;2023-04-24T07:42:50;2.55;;;2.35;;
49784;SDS011;35679;38.732;-121.358;2023-04-24T07:45:40;3.25;;;2.10;;
49784;SDS011;35679;38.732;-121.358;2023-04-24T07:48:29;2.88;;;2.42;;
49784;SDS011;35679;38.732;-121.358;2023-04-24T07:51:18;2.65;;;2.53;;
49784;SDS011;35679;38.732;-121.358;2023-04-24T07:54:08;3.13;;;2.88;;
49784;SDS011;35679;38.732;-121.358;2023-04-24T07:56:58;3.10;;;2.50;;
49784;SDS011;35679;38.732;-121.358;2023-04-24T07:59:47;2.63;;;2.42;;
49784;SDS011;35679;38.732;-121.358;2023-04-24T08:02:36;2.97;;;2.50;;
49784;SDS011;35679;38.732;-121.358;2023-04-24T08:05:26;2.70;;;2.40;;
49784;SDS011;35679;38.732;-121.358;2023-04-24T08:08:17;3.00;;;2.70;;
49784;SDS011;35679;38.732;-121.358;2023-04-24T08:11:06;3.88;;;2.70;;
49784;SDS011;35679;38.732;-121.358;2023-04-24T08:13:55;2.50;;;2.30;;
49784;SDS011;35679;38.732;-121.358;2023-04-24T08:16:45;2.80;;;2.60;;
49784;SDS011;35679;38.732;-121.358;2023-04-24T08:19:34;2.85;;;2.65;;
49784;SDS011;35679;38.732;-121.358;2023-04-24T08:22:23;2.60;;;2.47;;
49784;SDS011;35679;38.732;-121.358;2023-04-24T08:25:13;3.50;;;2.50;;
49784;SDS011;35679;38.732;-121.358;2023-04-24T08:28:02;2.90;;;2.70;;
49784;SDS011;35679;38.732;-121.358;2023-04-24T08:30:52;2.65;;;2.42;;
49784;SDS011;35679;38.732;-121.358;2023-04-24T08:33:42;2.92;;;2.67;;
49784;SDS011;35679;38.732;-121.358;2023-04-24T08:36:34;3.00;;;2.60;;
49784;SDS011;35679;38.732;-121.358;2023-04-24T08:39:33;4.25;;;2.72;;
49784;SDS011;35679;38.732;-121.358;2023-04-24T08:42:23;2.58;;;2.47;;
49784;SDS011;35679;38.732;-121.358;2023-04-24T08:45:13;3.10;;;2.80;;
49784;SDS011;35679;38.732;-121.358;2023-04-24T08:48:02;2.97;;;2.70;;
49784;SDS011;35679;38.732;-121.358;2023-04-24T08:51:07;3.65;;;2.78;;
49784;SDS011;35679;38.732;-121.358;2023-04-24T08:53:57;3.00;;;2.80;;
49784;SDS011;35679;38.732;-121.358;2023-04-24T08:56:47;3.15;;;2.63;;
49784;SDS011;35679;38.732;-121.358;2023-04-24T08:59:37;3.53;;;3.22;;
49784;SDS011;35679;38.732;-121.358;2023-04-24T09:02:27;3.03;;;2.67;;
49784;SDS011;35679;38.732;-121.358;2023-04-24T09:05:21;2.95;;;2.72;;
49784;SDS011;35679;38.732;-121.358;2023-04-24T09:08:14;3.40;;;2.60;;
49784;SDS011;35679;38.732;-121.358;2023-04-24T09:11:06;3.28;;;2.83;;
49784;SDS011;35679;38.732;-121.358;2023-04-24T09:13:56;3.00;;;2.80;;
49784;SDS011;35679;38.732;-121.358;2023-04-24T09:16:47;3.65;;;2.97;;
49784;SDS011;35679;38.732;-121.358;2023-04-24T09:19:37;3.72;;;2.90;;
49784;SDS011;35679;38.732;-121.358;2023-04-24T09:22:28;4.15;;;2.75;;
49784;SDS011;35679;38.732;-121.358;2023-04-24T09:25:19;3.13;;;2.92;;
49784;SDS011;35679;38.732;-121.358;2023-04-24T09:28:09;3.28;;;2.85;;
49784;SDS011;35679;38.732;-121.358;2023-04-24T09:31:03;2.95;;;2.63;;
49784;SDS011;35679;38.732;-121.358;2023-04-24T09:33:56;2.80;;;2.53;;
49784;SDS011;35679;38.732;-121.358;2023-04-24T09:36:52;3.35;;;2.78;;
49784;SDS011;35679;38.732;-121.358;2023-04-24T09:39:42;2.80;;;2.60;;
49784;SDS011;35679;38.732;-121.358;2023-04-24T09:42:31;3.30;;;2.97;;
49784;SDS011;35679;38.732;-121.358;2023-04-24T09:45:21;3.67;;;3.05;;
49784;SDS011;35679;38.732;-121.358;2023-04-24T09:48:10;2.72;;;2.50;;
49784;SDS011;35679;38.732;-121.358;2023-04-24T09:51:00;3.15;;;2.85;;
49784;SDS011;35679;38.732;-121.358;2023-04-24T09:53:51;3.13;;;2.63;;
49784;SDS011;35679;38.732;-121.358;2023-04-24T09:56:48;2.75;;;2.55;;
49784;SDS011;35679;38.732;-121.358;2023-04-24T09:59:45;4.25;;;3.00;;
49784;SDS011;35679;38.732;-121.358;2023-04-24T10:02:35;3.00;;;2.80;;
49784;SDS011;35679;38.732;-121.358;2023-04-24T10:05:26;3.25;;;3.03;;
49784;SDS011;35679;38.732;-121.358;2023-04-24T10:08:17;2.88;;;2.67;;
49784;SDS011;35679;38.732;-121.358;2023-04-24T10:11:07;3.28;;;2.97;;
49784;SDS011;35679;38.732;-121.358;2023-04-24T10:13:56;2.70;;;2.50;;
49784;SDS011;35679;38.732;-121.358;2023-04-24T10:16:47;3.85;;;3.03;;
49784;SDS011;35679;38.732;-121.358;2023-04-24T10:19:37;3.60;;;3.05;;
49784;SDS011;35679;38.732;-121.358;2023-04-24T10:22:27;3.20;;;3.00;;
49784;SDS011;35679;38.732;-121.358;2023-04-24T10:25:22;3.13;;;2.60;;
49784;SDS011;35679;38.732;-121.358;2023-04-24T10:28:13;3.92;;;2.70;;
49784;SDS011;35679;38.732;-121.358;2023-04-24T10:31:03;4.05;;;3.00;;
49784;SDS011;35679;38.732;-121.358;2023-04-24T10:33:52;3.25;;;2.85;;
49784;SDS011;35679;38.732;-121.358;2023-04-24T10:36:46;2.78;;;2.58;;
49784;SDS011;35679;38.732;-121.358;2023-04-24T10:39:42;4.22;;;2.97;;
49784;SDS011;35679;38.732;-121.358;2023-04-24T10:42:32;4.32;;;2.80;;
49784;SDS011;35679;38.732;-121.358;2023-04-24T10:45:22;3.28;;;2.95;;
49784;SDS011;35679;38.732;-121.358;2023-04-24T10:48:12;3.35;;;2.78;;
49784;SDS011;35679;38.732;-121.358;2023-04-24T10:51:04;2.67;;;2.40;;
49784;SDS011;35679;38.732;-121.358;2023-04-24T10:53:54;3.05;;;2.80;;
49784;SDS011;35679;38.732;-121.358;2023-04-24T10:56:46;3.47;;;3.17;;
49784;SDS011;35679;38.732;-121.358;2023-04-24T10:59:35;4.00;;;2.83;;
49784;SDS011;35679;38.732;-121.358;2023-04-24T11:02:35;4.03;;;3.03;;
49784;SDS011;35679;38.732;-121.358;2023-04-24T11:08:44;3.00;;;2.80;;
49784;SDS011;35679;38.732;-121.358;2023-04-24T11:11:35;3.10;;;2.90;;
49784;SDS011;35679;38.732;-121.358;2023-04-24T11:14:25;4.10;;;3.35;;
49784;SDS011;35679;38.732;-121.358;2023-04-24T11:17:26;3.25;;;2.97;;
49784;SDS011;35679;38.732;-121.358;2023-04-24T11:20:18;4.10;;;3.20;;
49784;SDS011;35679;38.732;-121.358;2023-04-24T11:23:15;3.50;;;2.90;;
49784;SDS011;35679;38.732;-121.358;2023-04-24T11:26:12;5.75;;;2.85;;
49784;SDS011;35679;38.732;-121.358;2023-04-24T11:29:11;3.65;;;3.35;;
49784;SDS011;35679;38.732;-121.358;2023-04-24T11:32:11;3.60;;;2.67;;
49784;SDS011;35679;38.732;-121.358;2023-04-24T11:35:18;4.18;;;3.05;;
49784;SDS011;35679;38.732;-121.358;2023-04-24T11:38:16;3.22;;;2.92;;
49784;SDS011;35679;38.732;-121.358;2023-04-24T11:41:11;3.13;;;2.92;;
49784;SDS011;35679;38.732;-121.358;2023-04-24T11:44:02;3.45;;;2.95;;
49784;SDS011;35679;38.732;-121.358;2023-04-24T11:46:55;2.70;;;2.50;;
49784;SDS011;35679;38.732;-121.358;2023-04-24T11:49:45;3.83;;;3.15;;
49784;SDS011;35679;38.732;-121.358;2023-04-24T11:52:38;3.65;;;3.20;;
49784;SDS011;35679;38.732;-121.358;2023-04-24T11:55:29;3.38;;;2.95;;
49784;SDS011;35679;38.732;-121.358;2023-04-24T11:58:20;4.38;;;2.65;;
49784;SDS011;35679;38.732;-121.358;2023-04-24T12:01:14;3.50;;;3.05;;
49784;SDS011;35679;38.732;-121.358;2023-04-24T12:04:04;3.38;;;3.08;;
49784;SDS011;35679;38.732;-121.358;2023-04-24T12:07:03;3.33;;;2.95;;
49784;SDS011;35679;38.732;-121.358;2023-04-24T12:09:57;3.55;;;2.90;;
49784;SDS011;35679;38.732;-121.358;2023-04-24T12:12:51;3.60;;;3.30;;
49784;SDS011;35679;38.732;-121.358;2023-04-24T12:15:40;3.22;;;2.90;;
49784;SDS011;35679;38.732;-121.358;2023-04-24T12:18:30;3.10;;;2.90;;
49784;SDS011;35679;38.732;-121.358;2023-04-24T12:21:22;2.67;;;2.53;;
49784;SDS011;35679;38.732;-121.358;2023-04-24T12:24:14;3.30;;;3.00;;
49784;SDS011;35679;38.732;-121.358;2023-04-24T12:27:18;3.70;;;2.85;;
49784;SDS011;35679;38.732;-121.358;2023-04-24T12:30:13;3.53;;;2.65;;
49784;SDS011;35679;38.732;-121.358;2023-04-24T12:33:04;3.92;;;2.95;;
49784;SDS011;35679;38.732;-121.358;2023-04-24T12:35:53;3.40;;;3.10;;
49784;SDS011;35679;38.732;-121.358;2023-04-24T12:38:43;3.60;;;3.10;;
49784;SDS011;35679;38.732;-121.358;2023-04-24T12:41:34;2.95;;;2.75;;
49784;SDS011;35679;38.732;-121.358;2023-04-24T12:44:33;3.13;;;2.80;;
49784;SDS011;35679;38.732;-121.358;2023-04-24T12:47:25;3.42;;;3.00;;
49784;SDS011;35679;38.732;-121.358;2023-04-24T12:50:15;4.85;;;2.90;;
49784;SDS011;35679;38.732;-121.358;2023-04-24T12:53:05;4.07;;;3.03;;
49784;SDS011;35679;38.732;-121.358;2023-04-24T12:55:55;4.70;;;3.15;;
49784;SDS011;35679;38.732;-121.358;2023-04-24T12:58:45;3.20;;;2.90;;
49784;SDS011;35679;38.732;-121.358;2023-04-24T13:01:34;3.75;;;2.90;;
49784;SDS011;35679;38.732;-121.358;2023-04-24T13:04:24;3.50;;;3.10;;
49784;SDS011;35679;38.732;-121.358;2023-04-24T13:07:13;3.28;;;2.95;;
49784;SDS011;35679;38.732;-121.358;2023-04-24T13:10:03;4.15;;;3.00;;
49784;SDS011;35679;38.732;-121.358;2023-04-24T13:12:52;3.05;;;2.70;;
49784;SDS011;35679;38.732;-121.358;2023-04-24T13:15:42;3.65;;;2.60;;
49784;SDS011;35679;38.732;-121.358;2023-04-24T13:18:31;3.95;;;3.17;;
49784;SDS011;35679;38.732;-121.358;2023-04-24T13:21:20;2.90;;;2.60;;
49784;SDS011;35679;38.732;-121.358;2023-04-24T13:24:09;3.17;;;2.95;;
49784;SDS011;35679;38.732;-121.358;2023-04-24T13:26:59;4.05;;;3.03;;
49784;SDS011;35679;38.732;-121.358;2023-04-24T13:29:49;2.60;;;2.20;;
49784;SDS011;35679;38.732;-121.358;2023-04-24T13:32:38;3.40;;;3.10;;
49784;SDS011;35679;38.732;-121.358;2023-04-24T13:35:27;4.43;;;2.50;;
49784;SDS011;35679;38.732;-121.358;2023-04-24T13:38:17;3.55;;;2.80;;
49784;SDS011;35679;38.732;-121.358;2023-04-24T13:41:06;3.50;;;2.67;;
49784;SDS011;35679;38.732;-121.358;2023-04-24T13:43:55;2.50;;;2.30;;
49784;SDS011;35679;38.732;-121.358;2023-04-24T13:46:45;2.58;;;2.38;;
49784;SDS011;35679;38.732;-121.358;2023-04-24T13:49:36;3.95;;;2.88;;
49784;SDS011;35679;38.732;-121.358;2023-04-24T13:52:25;2.97;;;2.30;;
49784;SDS011;35679;38.732;-121.358;2023-04-24T13:55:15;7.80;;;3.08;;
49784;SDS011;35679;38.732;-121.358;2023-04-24T13:58:04;2.35;;;2.15;;
49784;SDS011;35679;38.732;-121.358;2023-04-24T14:00:55;11.15;;;2.30;;
49784;SDS011;35679;38.732;-121.358;2023-04-24T14:03:44;5.80;;;3.10;;
49784;SDS011;35679;38.732;-121.358;2023-04-24T14:06:34;4.45;;;2.88;;
49784;SDS011;35679;38.732;-121.358;2023-04-24T14:09:23;4.32;;;2.15;;
49784;SDS011;35679;38.732;-121.358;2023-04-24T14:12:12;4.22;;;2.60;;
49784;SDS011;35679;38.732;-121.358;2023-04-24T14:15:04;3.53;;;2.30;;
49784;SDS011;35679;38.732;-121.358;2023-04-24T14:17:54;4.10;;;2.50;;
49784;SDS011;35679;38.732;-121.358;2023-04-24T14:20:44;3.53;;;2.63;;
49784;SDS011;35679;38.732;-121.358;2023-04-24T14:23:33;2.92;;;2.72;;
49784;SDS011;35679;38.732;-121.358;2023-04-24T14:26:23;3.25;;;2.55;;
49784;SDS011;35679;38.732;-121.358;2023-04-24T14:29:13;5.55;;;2.75;;
49784;SDS011;35679;38.732;-121.358;2023-04-24T14:32:03;3.42;;;2.65;;
49784;SDS011;35679;38.732;-121.358;2023-04-24T14:34:52;5.07;;;2.90;;
49784;SDS011;35679;38.732;-121.358;2023-04-24T14:37:41;2.78;;;2.58;;
49784;SDS011;35679;38.732;-121.358;2023-04-24T14:40:31;4.20;;;2.50;;
49784;SDS011;35679;38.732;-121.358;2023-04-24T14:43:40;2.60;;;2.30;;
49784;SDS011;35679;38.732;-121.358;2023-04-24T14:46:30;3.42;;;2.22;;
49784;SDS011;35679;38.732;-121.358;2023-04-24T14:49:20;2.40;;;2.20;;
49784;SDS011;35679;38.732;-121.358;2023-04-24T14:52:10;2.75;;;2.50;;
49784;SDS011;35679;38.732;-121.358;2023-04-24T14:54:59;2.63;;;2.40;;
49784;SDS011;35679;38.732;-121.358;2023-04-24T14:57:49;2.60;;;2.40;;
49784;SDS011;35679;38.732;-121.358;2023-04-24T15:00:38;3.15;;;2.65;;
49784;SDS011;35679;38.732;-121.358;2023-04-24T15:03:27;4.00;;;2.53;;
49784;SDS011;35679;38.732;-121.358;2023-04-24T15:06:17;4.20;;;2.75;;
49784;SDS011;35679;38.732;-121.358;2023-04-24T15:09:08;3.40;;;2.70;;
49784;SDS011;35679;38.732;-121.358;2023-04-24T15:11:58;2.85;;;2.65;;
49784;SDS011;35679;38.732;-121.358;2023-04-24T15:14:47;4.93;;;2.85;;
49784;SDS011;35679;38.732;-121.358;2023-04-24T15:17:36;3.58;;;2.80;;
49784;SDS011;35679;38.732;-121.358;2023-04-24T15:20:26;2.80;;;2.50;;
49784;SDS011;35679;38.732;-121.358;2023-04-24T15:23:15;3.90;;;2.95;;
49784;SDS011;35679;38.732;-121.358;2023-04-24T15:26:05;4.10;;;2.67;;
49784;SDS011;35679;38.732;-121.358;2023-04-24T15:28:54;4.95;;;2.40;;
49784;SDS011;35679;38.732;-121.358;2023-04-24T15:31:44;3.65;;;2.58;;
49784;SDS011;35679;38.732;-121.358;2023-04-24T15:34:33;4.88;;;2.60;;
49784;SDS011;35679;38.732;-121.358;2023-04-24T15:37:23;3.00;;;2.50;;
49784;SDS011;35679;38.732;-121.358;2023-04-24T15:40:12;4.45;;;2.47;;
49784;SDS011;35679;38.732;-121.358;2023-04-24T15:43:03;4.93;;;2.25;;
49784;SDS011;35679;38.732;-121.358;2023-04-24T15:45:53;3.90;;;2.40;;
49784;SDS011;35679;38.732;-121.358;2023-04-24T15:48:42;2.38;;;2.17;;
49784;SDS011;35679;38.732;-121.358;2023-04-24T15:51:32;4.60;;;2.60;;
49784;SDS011;35679;38.732;-121.358;2023-04-24T15:54:21;3.03;;;2.72;;
49784;SDS011;35679;38.732;-121.358;2023-04-24T15:57:10;2.95;;;2.60;;
49784;SDS011;35679;38.732;-121.358;2023-04-24T16:00:03;2.67;;;2.28;;
49784;SDS011;35679;38.732;-121.358;2023-04-24T16:03:00;4.30;;;2.60;;
49784;SDS011;35679;38.732;-121.358;2023-04-24T16:05:51;3.88;;;2.75;;
49784;SDS011;35679;38.732;-121.358;2023-04-24T16:08:41;4.15;;;2.15;;
49784;SDS011;35679;38.732;-121.358;2023-04-24T16:11:30;2.60;;;2.33;;
49784;SDS011;35679;38.732;-121.358;2023-04-24T16:14:20;3.38;;;2.33;;
49784;SDS011;35679;38.732;-121.358;2023-04-24T16:17:09;2.40;;;2.20;;
49784;SDS011;35679;38.732;-121.358;2023-04-24T16:19:58;6.43;;;2.60;;
49784;SDS011;35679;38.732;-121.358;2023-04-24T16:22:48;4.15;;;2.40;;
49784;SDS011;35679;38.732;-121.358;2023-04-24T16:25:37;3.15;;;2.75;;
49784;SDS011;35679;38.732;-121.358;2023-04-24T16:28:27;4.43;;;2.65;;